Time;durP1;ratioP1;P1;durP2;ratioP2;P2;SDS_P1;SDS_P2;PMS_P1;PMS_P2;Temp;Humidity;BMP_temperature;BMP_pressure;BME280_temperature;BME280_humidity;BME280_pressure;Samples;Min_cycle;Max_cycle;Signal;HPM_P1;HPM_P2
2020/12/26 09:11:30;;;;;;;29.97;12.47;;;;;;;1.03;74.81;99279.21;120355;1110;104432;-70
2020/12/26 09:13:59;;;;;;;32.63;14.10;;;;;;;1.06;74.39;99282.64;120125;1150;104460;-71
2020/12/26 09:16:28;;;;;;;32.65;15.50;;;;;;;1.07;74.92;99277.34;120155;1150;104353;-73
2020/12/26 09:19:02;;;;;;;32.80;16.40;;;;;;;1.16;74.24;99274.45;120008;1150;104385;-71
2020/12/26 09:21:31;;;;;;;27.32;12.10;;;;;;;1.26;74.74;99282.03;120071;1150;104367;-71
2020/12/26 09:23:58;;;;;;;29.50;12.90;;;;;;;1.29;74.57;99277.54;120009;1150;104426;-70
2020/12/26 09:26:36;;;;;;;27.83;11.53;;;;;;;1.32;74.54;99280.06;119916;1150;104359;-70
2020/12/26 09:29:03;;;;;;;26.63;11.47;;;;;;;1.34;74.74;99283.50;119999;1150;104394;-70
2020/12/26 09:31:35;;;;;;;27.23;10.67;;;;;;;1.38;74.59;99286.02;119965;1151;104540;-69
2020/12/26 09:34:17;;;;;;;29.60;12.23;;;;;;;1.37;74.83;99284.31;119933;1150;104388;-69
2020/12/26 09:36:45;;;;;;;27.20;10.77;;;;;;;1.38;74.41;99302.63;119666;1149;105049;-72
2020/12/26 09:39:14;;;;;;;23.83;9.40;;;;;;;1.38;74.24;99293.89;119960;1150;104976;-71
2020/12/26 09:41:44;;;;;;;24.73;9.23;;;;;;;1.41;74.37;99288.55;119934;1150;104377;-76
2020/12/26 09:44:13;;;;;;;26.00;9.30;;;;;;;1.45;74.62;99290.17;120101;1150;104345;-71
2020/12/26 09:46:42;;;;;;;20.83;8.43;;;;;;;1.47;74.69;99297.06;119969;1150;104432;-71
2020/12/26 09:49:10;;;;;;;24.80;10.63;;;;;;;1.49;74.27;99294.41;119922;1151;104429;-70
2020/12/26 09:51:37;;;;;;;22.27;8.83;;;;;;;1.47;74.20;99293.61;120036;1151;104624;-72
2020/12/26 09:54:04;;;;;;;22.83;8.00;;;;;;;1.45;74.46;99298.03;119846;1150;104378;-71
2020/12/26 09:56:31;;;;;;;25.30;9.05;;;;;;;1.41;74.66;99302.53;119956;1150;104400;-73
2020/12/26 09:58:58;;;;;;;24.83;9.77;;;;;;;1.38;74.61;99304.38;119982;1150;104532;-71
2020/12/26 10:01:25;;;;;;;21.40;9.37;;;;;;;1.39;74.52;99300.84;120070;1150;104346;-72
2020/12/26 10:03:52;;;;;;;26.40;10.53;;;;;;;1.39;74.28;99301.72;120045;1150;104560;-73
2020/12/26 10:06:21;;;;;;;23.57;9.20;;;;;;;1.37;74.55;99297.41;119833;1150;104413;-72
2020/12/26 10:08:49;;;;;;;27.80;10.80;;;;;;;1.36;74.50;99295.70;119997;1151;104439;-70
2020/12/26 10:11:19;;;;;;;23.80;9.45;;;;;;;1.39;74.58;99285.12;120061;1150;104348;-73
2020/12/26 10:13:48;;;;;;;24.70;10.05;;;;;;;1.43;74.51;99298.06;120031;1151;104449;-72
2020/12/26 10:16:19;;;;;;;26.57;11.93;;;;;;;1.45;74.83;99293.64;120082;1150;104511;-73
2020/12/26 10:18:47;;;;;;;25.73;9.80;;;;;;;1.47;74.71;99293.61;119973;1151;104532;-72
2020/12/26 10:21:16;;;;;;;24.90;10.90;;;;;;;1.43;74.64;99298.06;120210;1150;104448;-72
2020/12/26 10:23:45;;;;;;;24.43;9.80;;;;;;;1.43;74.24;99294.61;120026;1150;104342;-73
2020/12/26 10:26:12;;;;;;;22.03;8.53;;;;;;;1.38;74.41;99297.38;120104;1150;104446;-71
2020/12/26 10:28:44;;;;;;;24.40;10.47;;;;;;;1.37;74.53;99290.42;119920;1150;104600;-73
2020/12/26 10:31:11;;;;;;;25.87;10.20;;;;;;;1.38;74.64;99296.51;120014;1150;104382;-73
2020/12/26 10:33:38;;;;;;;26.60;10.18;;;;;;;1.43;74.42;99287.58;119719;1150;104354;-74
2020/12/26 10:36:05;;;;;;;26.60;11.47;;;;;;;1.44;74.52;99291.92;119960;1150;104461;-74
2020/12/26 10:38:32;;;;;;;25.65;10.25;;;;;;;1.46;74.12;99284.03;119798;1150;102976;-74
2020/12/26 10:40:58;;;;;;;24.30;9.73;;;;;;;1.50;74.61;99280.41;119935;1150;104512;-70
2020/12/26 10:43:26;;;;;;;27.67;12.00;;;;;;;1.56;74.14;99281.95;119900;1150;104446;-71
2020/12/26 10:45:53;;;;;;;29.97;14.47;;;;;;;1.58;74.14;99280.14;120055;1150;104345;-72
2020/12/26 10:48:20;;;;;;;28.50;13.50;;;;;;;1.57;74.72;99281.92;120044;1151;104809;-71
2020/12/26 10:50:47;;;;;;;29.00;12.50;;;;;;;1.60;74.17;99283.58;119924;1150;104521;-70
2020/12/26 10:53:14;;;;;;;26.60;10.97;;;;;;;1.58;74.55;99283.64;119985;1150;104992;-70
2020/12/26 10:55:42;;;;;;;26.07;9.53;;;;;;;1.60;74.68;99273.09;119999;1150;104450;-68
2020/12/26 10:58:13;;;;;;;24.87;10.50;;;;;;;1.55;74.45;99270.63;119967;1150;104418;-72
2020/12/26 11:00:40;;;;;;;25.77;10.70;;;;;;;1.55;74.04;99275.00;120089;1150;104416;-70
2020/12/26 11:03:07;;;;;;;23.63;8.47;;;;;;;1.54;74.51;99276.78;120029;1150;104455;-69
2020/12/26 11:05:34;;;;;;;24.05;9.85;;;;;;;1.60;73.97;99280.95;119949;1150;104430;-73
2020/12/26 11:08:01;;;;;;;24.50;9.03;;;;;;;1.64;74.00;99277.33;120049;1150;104439;-70
2020/12/26 11:10:28;;;;;;;21.82;8.03;;;;;;;1.62;73.99;99284.38;120116;1150;104353;-71
2020/12/26 11:12:56;;;;;;;22.70;8.33;;;;;;;1.61;74.30;99295.78;119832;1151;104353;-71
2020/12/26 11:15:25;;;;;;;22.50;8.13;;;;;;;1.62;74.46;99284.38;119972;1150;104404;-72
2020/12/26 11:17:52;;;;;;;20.50;8.00;;;;;;;1.60;74.13;99291.44;119962;1150;104351;-72
2020/12/26 11:20:25;;;;;;;22.00;8.53;;;;;;;1.61;74.33;99282.67;120098;1150;104558;-71
